Lynchburg, Texas
Current Conditions -  °F | °C
As of 11:50 PM on Friday 19 Dec 2014 (Local Time) from KEFD Reporting Station
Overcast Overcast  
Wind Chill: 54°   Ceiling: 800
Heat Index: 54°   Visibility: 7mi
Dew Point: 52°   Wind: 9mph
Humidity: 94%   Direction: 350°N
Pressure: 30.13"   Gusts: NA
Location:  29.7803°N, 94.894°W
Report Text: KEFD 200550Z 35008KT 7SM OVC008 12/11 A3013
Loading
Personal Weather Stations






























Interactive Weather Map New forecast layout! Learn more

10-Day Weather Forecast

Advertisements
Track Severe Weather on mobile